Aviation Digital Data Service (ADDS)

Output produced by METARs form (0112 UTC 20 January 2022)
found at http://www.aviationweather.gov/metar/data/
 
METAR text: KCPR 200053Z 09004KT 10SM BKN070 M11/M14 A3025 RMK AO2 SLP320 T11061144
Conditions at: KCPR (CASPER , WY, US) observed 0053 UTC 20 January 2022
Temperature: -10.6°C (13°F)
Dewpoint: -14.4°C ( 6°F) [RH = 74%]
Pressure (altimeter): 30.25 inches Hg (1024.5 mb)
[Sea-level pressure: 1032.0 mb]
Winds: from the E (90 degrees) at 5 MPH (4 knots; 2.1 m/s)
Visibility: 10 or more miles (16+ km)
Ceiling: 7000 feet AGL
Clouds: broken clouds at 7000 feet AGL
Weather: no significant weather observed at this time

METAR text: KCPR 200042Z 08003KT 10SM SCT019 OVC075 M11/M14 A3025 RMK AO2 T11061139
Conditions at: KCPR (CASPER , WY, US) observed 0042 UTC 20 January 2022
Temperature: -10.6°C (13°F)
Dewpoint: -13.9°C ( 7°F) [RH = 77%]
Pressure (altimeter): 30.25 inches Hg (1024.5 mb)
Winds: from the E (80 degrees) at 3 MPH (3 knots; 1.5 m/s)
Visibility: 10 or more miles (16+ km)
Ceiling: 7500 feet AGL
Clouds: scattered clouds at 1900 feet AGL
overcast cloud deck at 7500 feet AGL
Weather: no significant weather observed at this time

Forecast for: KCPR (CASPER , WY, US)
Text: KCPR 200035Z 2001/2024 10005KT P6SM BKN020 OVC070
Forecast period: 0100 to 0130 UTC 20 January 2022
Forecast type: FROM: standard forecast or significant change
Winds: from the E (100 degrees) at 6 MPH (5 knots; 2.6 m/s)
Visibility: 6 or more miles (10+ km)
Ceiling: 2000 feet AGL
Clouds: broken clouds at 2000 feet AGL
overcast cloud deck at 7000 feet AGL
Weather: no significant weather forecast for this period
Text: FM200130 08006KT P6SM SCT070
Forecast period: 0130 to 0900 UTC 20 January 2022
Forecast type: FROM: standard forecast or significant change
Winds: from the E (80 degrees) at 7 MPH (6 knots; 3.1 m/s)
Visibility: 6 or more miles (10+ km)
Ceiling: at least 12,000 feet AGL
Clouds: scattered clouds at 7000 feet AGL
Weather: no significant weather forecast for this period
Text: FM200900 24007KT P6SM SCT040 BKN100
Forecast period: 0900 to 1800 UTC 20 January 2022
Forecast type: FROM: standard forecast or significant change
Winds: from the WSW (240 degrees) at 8 MPH (7 knots; 3.6 m/s)
Visibility: 6 or more miles (10+ km)
Ceiling: 10000 feet AGL
Clouds: scattered clouds at 4000 feet AGL
broken clouds at 10000 feet AGL
Weather: no significant weather forecast for this period
Text: FM201800 25013G20KT P6SM SCT040 BKN080
Forecast period: 1800 UTC 20 January 2022 to 0000 UTC 21 January 2022
Forecast type: FROM: standard forecast or significant change
Winds: from the WSW (250 degrees) at 15 MPH (13 knots; 6.7 m/s)
gusting to 23 MPH (20 knots; 10.3 m/s)
Visibility: 6 or more miles (10+ km)
Ceiling: 8000 feet AGL
Clouds: scattered clouds at 4000 feet AGL
broken clouds at 8000 feet AGL
Weather: no significant weather forecast for this period